Time;durP1;ratioP1;P1;durP2;ratioP2;P2;SDS_P1;SDS_P2;PMS_P1;PMS_P2;Temp;Humidity;BMP_temperature;BMP_pressure;BME280_temperature;BME280_humidity;BME280_pressure;Samples;Min_cycle;Max_cycle;Signal;HPM_P1;HPM_P2
2023/10/02 00:00:42;;;;;;;;;16.50;13.75;;;;;19.03;77.58;101966.22;4969871;28;8904;-71
2023/10/02 00:03:09;;;;;;;;;15.00;14.00;;;;;19.03;77.31;101968.13;4961172;28;9582;-70
2023/10/02 00:05:52;;;;;;;;;16.25;14.25;;;;;19.03;77.41;101966.22;4970660;28;8854;-70
2023/10/02 00:11:35;;;;;;;;;17.75;14.75;;;;;18.97;77.56;101958.13;4966492;28;8874;-71
2023/10/02 00:14:18;;;;;;;;;17.33;15.00;;;;;18.94;77.57;101973.03;4973169;28;8846;-70
2023/10/02 00:17:00;;;;;;;;;20.67;18.00;;;;;18.94;77.66;101983.09;5004525;28;8992;-71
2023/10/02 00:19:30;;;;;;;;;14.25;13.00;;;;;18.91;77.69;101973.47;4974184;28;8941;-71
2023/10/02 00:22:03;;;;;;;;;15.00;13.50;;;;;18.90;77.78;101970.97;4977164;28;8836;-71
2023/10/02 00:24:35;;;;;;;;;14.25;14.25;;;;;18.88;77.68;101967.63;4989268;28;8838;-71
2023/10/02 00:27:03;;;;;;;;;14.75;14.00;;;;;18.88;77.81;101973.06;4972003;28;9050;-71
2023/10/02 00:29:30;;;;;;;;;16.50;13.50;;;;;18.86;77.78;101970.56;4988799;28;8854;-69
2023/10/02 00:31:58;;;;;;;;;18.00;16.00;;;;;18.88;77.82;101967.63;4969388;28;8852;-69
2023/10/02 00:34:32;;;;;;;;;15.00;13.67;;;;;18.87;77.68;101971.41;4968463;28;8877;-70
2023/10/02 00:37:10;;;;;;;;;15.25;12.75;;;;;18.86;77.61;101967.84;4973869;28;8873;-69
2023/10/02 00:39:47;;;;;;;;;14.00;12.50;;;;;18.86;77.65;101972.47;4972008;28;8845;-68
2023/10/02 00:42:24;;;;;;;;;14.50;13.50;;;;;18.85;77.81;101966.19;4968903;28;8869;-69
2023/10/02 00:44:57;;;;;;;;;18.25;13.00;;;;;18.85;77.61;101958.00;4971572;28;8852;-69
2023/10/02 00:47:38;;;;;;;;;16.50;13.25;;;;;18.83;77.56;101965.56;4974015;28;8870;-70
2023/10/02 00:50:18;;;;;;;;;15.50;9.75;;;;;18.82;77.55;101972.06;5002487;28;8905;-70
2023/10/02 00:53:11;;;;;;;;;11.25;10.75;;;;;18.79;77.58;101964.31;4970691;28;8810;-70
2023/10/02 00:55:38;;;;;;;;;17.75;14.75;;;;;18.77;77.98;101952.81;4971125;28;8871;-70
2023/10/02 00:58:08;;;;;;;;;18.67;18.00;;;;;18.75;77.78;101946.72;4972051;28;8841;-70
2023/10/02 01:00:35;;;;;;;;;14.50;14.00;;;;;18.73;77.89;101941.50;4970909;28;8934;-70
2023/10/02 01:03:14;;;;;;;;;15.50;13.25;;;;;18.73;78.03;101946.13;4971998;28;8904;-70
2023/10/02 01:05:50;;;;;;;;;24.67;23.33;;;;;18.69;78.12;101940.25;4973356;28;8834;-69
2023/10/02 01:08:25;;;;;;;;;18.25;15.50;;;;;18.70;78.29;101938.38;4967028;28;9047;-70
2023/10/02 01:10:57;;;;;;;;;20.33;16.67;;;;;18.70;78.05;101941.94;4973049;28;8830;-70
2023/10/02 01:13:30;;;;;;;;;16.67;15.00;;;;;18.69;78.24;101942.97;4968891;28;8934;-70
2023/10/02 01:15:59;;;;;;;;;16.50;15.50;;;;;18.67;78.30;101947.81;4971872;28;8940;-70
2023/10/02 01:18:27;;;;;;;;;20.33;17.33;;;;;18.68;78.26;101945.94;4987402;28;9612;-70
2023/10/02 01:21:01;;;;;;;;;16.33;14.33;;;;;18.66;78.33;101945.31;4970891;28;9076;-70
2023/10/02 01:23:31;;;;;;;;;20.50;17.50;;;;;18.64;78.52;101945.53;4968833;28;9003;-70
2023/10/02 01:26:00;;;;;;;;;14.00;14.00;;;;;18.64;78.57;101945.53;4973058;28;8830;-69
2023/10/02 01:28:51;;;;;;;;;13.00;13.00;;;;;18.61;78.57;101935.06;4988420;28;8940;-70
2023/10/02 01:34:04;;;;;;;;;13.33;11.67;;;;;18.63;78.57;101945.75;4988135;28;9236;-69
2023/10/02 01:36:35;;;;;;;;;10.75;9.50;;;;;18.64;78.54;101942.81;4969799;28;8945;-69
2023/10/02 01:39:10;;;;;;;;;12.75;12.25;;;;;18.66;78.59;101946.13;4971081;28;8822;-69
2023/10/02 01:41:37;;;;;;;;;14.25;12.00;;;;;18.65;78.51;101939.03;4999999;28;8862;-69
2023/10/02 01:44:11;;;;;;;;;11.25;11.00;;;;;18.67;78.35;101938.78;4971312;28;8862;-70
2023/10/02 01:46:49;;;;;;;;;15.50;13.75;;;;;18.66;78.51;101931.66;4971098;28;8905;-70
2023/10/02 01:49:26;;;;;;;;;14.50;12.25;;;;;18.68;78.32;101938.59;4987045;28;8857;-70
2023/10/02 01:52:01;;;;;;;;;14.25;14.00;;;;;18.65;78.28;101939.03;5003038;28;8834;-70
2023/10/02 01:54:31;;;;;;;;;17.00;16.00;;;;;18.62;78.40;101941.34;4967311;28;8834;-69
2023/10/02 01:57:04;;;;;;;;;19.00;14.75;;;;;18.62;78.33;101928.53;4967561;28;8917;-69
2023/10/02 01:59:31;;;;;;;;;13.33;12.00;;;;;18.59;78.23;101925.41;4953714;28;8847;-70
2023/10/02 02:02:12;;;;;;;;;18.00;13.25;;;;;18.58;78.50;101927.31;4970926;28;9059;-70
2023/10/02 02:04:39;;;;;;;;;14.00;12.00;;;;;18.56;78.65;101929.44;4970825;28;8842;-70
2023/10/02 02:07:08;;;;;;;;;14.00;10.00;;;;;18.55;78.57;101925.03;4969352;28;8897;-70
2023/10/02 02:09:37;;;;;;;;;20.00;16.67;;;;;18.51;78.55;101921.06;4969047;28;8834;-70
2023/10/02 02:12:07;;;;;;;;;14.50;12.00;;;;;18.51;78.69;101916.47;4977456;28;9120;-70
2023/10/02 02:14:49;;;;;;;;;14.00;13.33;;;;;18.51;78.71;101916.47;4961350;28;8849;-70
2023/10/02 02:17:21;;;;;;;;;4.25;4.25;;;;;18.49;78.81;101910.41;4958291;28;9333;-70
2023/10/02 02:19:52;;;;;;;;;10.00;9.50;;;;;18.49;78.64;101915.84;4977581;28;8909;-70
2023/10/02 02:22:25;;;;;;;;;13.33;13.00;;;;;18.49;78.61;101920.47;4984703;28;8860;-69
2023/10/02 02:24:58;;;;;;;;;13.75;11.00;;;;;18.47;78.57;101925.28;4967357;28;8933;-69
2023/10/02 02:27:25;;;;;;;;;12.25;11.75;;;;;18.44;78.75;101923.03;4971564;28;8842;-69
2023/10/02 02:29:56;;;;;;;;;16.33;16.33;;;;;18.41;78.84;101918.84;4962016;28;8901;-71
2023/10/02 02:32:44;;;;;;;;;13.75;13.00;;;;;18.41;79.11;101918.84;4969694;28;8912;-69
2023/10/02 02:35:14;;;;;;;;;15.00;12.33;;;;;18.43;78.94;101916.75;4970502;28;8856;-69
2023/10/02 02:37:41;;;;;;;;;12.67;10.00;;;;;18.43;78.73;101915.88;4969493;28;9008;-69
2023/10/02 02:40:29;;;;;;;;;15.00;13.00;;;;;18.44;78.90;101912.13;4957689;28;9000;-69
2023/10/02 02:42:56;;;;;;;;;11.33;10.00;;;;;18.41;78.89;101913.38;4984361;28;9047;-69
2023/10/02 02:45:28;;;;;;;;;13.67;11.00;;;;;18.40;79.05;101910.91;4995486;28;8927;-69
2023/10/02 02:47:57;;;;;;;;;15.75;11.50;;;;;18.37;78.62;101914.06;5001518;28;8934;-69
2023/10/02 02:50:32;;;;;;;;;20.00;16.00;;;;;18.34;79.13;101911.75;5001682;22;8929;-69
2023/10/02 02:53:16;;;;;;;;;15.33;13.00;;;;;18.31;79.02;101901.28;4990523;28;9073;-69
2023/10/02 02:55:44;;;;;;;;;14.00;13.00;;;;;18.29;79.26;101909.69;4973713;28;9073;-68
2023/10/02 02:58:11;;;;;;;;;14.00;14.00;;;;;18.25;79.30;101909.28;4981126;28;8953;-68
2023/10/02 03:00:39;;;;;;;;;13.33;13.33;;;;;18.23;79.21;101905.97;4973596;28;8933;-68
2023/10/02 03:03:32;;;;;;;;;9.67;9.67;;;;;18.22;79.32;101909.72;4974501;28;8927;-69
2023/10/02 03:05:59;;;;;;;;;16.33;12.33;;;;;18.23;79.36;101907.84;4974821;28;8975;-69
2023/10/02 03:08:38;;;;;;;;;13.50;12.75;;;;;18.22;79.34;101904.28;4990493;28;9185;-68
2023/10/02 03:11:08;;;;;;;;;13.67;12.67;;;;;18.22;79.49;101909.72;4989888;28;8869;-69
2023/10/02 03:13:35;;;;;;;;;11.00;10.00;;;;;18.23;79.40;101896.94;4974163;28;9028;-69
2023/10/02 03:16:08;;;;;;;;;17.00;13.00;;;;;18.22;79.39;101903.44;4989079;28;8973;-69
2023/10/02 03:18:40;;;;;;;;;16.67;14.00;;;;;18.20;79.43;101900.94;4984762;28;9755;-69
2023/10/02 03:23:38;;;;;;;;;13.50;12.75;;;;;18.18;79.44;101915.84;4989358;28;9003;-69
2023/10/02 03:26:21;;;;;;;;;11.33;11.33;;;;;18.18;79.63;101915.84;4990188;28;8826;-68
2023/10/02 03:28:48;;;;;;;;;17.00;14.33;;;;;18.15;79.28;101911.69;4971471;28;8963;-69
2023/10/02 03:31:34;;;;;;;;;9.67;9.00;;;;;18.12;79.52;101912.09;4997535;28;9018;-68
2023/10/02 03:36:54;;;;;;;;;15.67;13.33;;;;;18.08;79.92;101901.88;4994049;28;8993;-68
2023/10/02 03:42:12;;;;;;;;;15.33;12.67;;;;;18.08;79.83;101902.69;4992844;28;9007;-69
2023/10/02 03:44:40;;;;;;;;;10.00;10.00;;;;;18.09;79.83;101906.25;4995055;28;8926;-68
2023/10/02 03:47:07;;;;;;;;;11.67;9.00;;;;;18.09;79.77;101898.91;5004037;28;8988;-68
2023/10/02 03:49:34;;;;;;;;;11.33;11.00;;;;;18.03;79.76;101897.06;5005404;28;9579;-69
2023/10/02 03:52:00;;;;;;;;;12.67;12.67;;;;;18.03;80.18;101880.72;5013696;28;9041;-69
2023/10/02 03:54:29;;;;;;;;;16.67;14.67;;;;;18.01;79.88;101886.38;5013808;28;9041;-68
2023/10/02 03:56:56;;;;;;;;;15.67;13.33;;;;;18.01;80.11;101891.00;5004101;28;9377;-68
2023/10/02 03:59:27;;;;;;;;;15.33;14.00;;;;;18.00;79.93;101889.34;4995086;28;9140;-69
2023/10/02 04:02:24;;;;;;;;;14.33;14.00;;;;;17.97;79.87;101885.16;4996389;28;8988;-68
2023/10/02 04:04:46;;;;;;;;;16.67;15.67;;;;;17.95;80.06;101883.72;4999281;28;9144;-69
2023/10/02 04:07:13;;;;;;;;;15.00;15.00;;;;;17.93;80.28;101883.91;5013112;28;9065;-69
2023/10/02 04:09:39;;;;;;;;;15.00;14.00;;;;;17.93;80.29;101880.34;4999971;28;9189;-68
2023/10/02 04:12:06;;;;;;;;;14.67;13.00;;;;;17.89;80.27;101885.41;5005012;28;9783;-68
2023/10/02 04:14:38;;;;;;;;;13.33;11.67;;;;;17.86;80.77;101887.72;4999195;28;9084;-68
2023/10/02 04:19:52;;;;;;;;;13.33;13.00;;;;;17.87;80.54;101873.91;4992291;28;8925;-69
2023/10/02 04:22:23;;;;;;;;;12.00;10.67;;;;;17.87;80.36;101860.28;4983840;28;9123;-68
2023/10/02 04:24:58;;;;;;;;;12.00;11.00;;;;;17.83;80.45;101859.03;4989021;28;8992;-69
2023/10/02 04:33:07;;;;;;;;;20.33;15.33;;;;;17.79;80.41;101860.53;4999402;28;9739;-67
2023/10/02 04:35:52;;;;;;;;;18.67;17.67;;;;;17.79;80.73;101869.53;4992932;28;9162;-69
2023/10/02 04:38:48;;;;;;;;;16.67;14.00;;;;;17.83;80.62;101866.38;4966818;28;9360;-69
2023/10/02 04:41:19;;;;;;;;;16.33;14.00;;;;;17.82;80.61;101868.25;4975663;28;8944;-68
2023/10/02 04:43:48;;;;;;;;;22.00;18.67;;;;;17.77;80.48;101865.34;5000924;28;9186;-67
2023/10/02 04:46:15;;;;;;;;;20.67;16.33;;;;;17.75;80.60;101870.19;4993760;28;9168;-68
2023/10/02 04:48:47;;;;;;;;;26.25;21.50;;;;;17.69;80.72;101880.00;4991164;28;9178;-67
2023/10/02 04:51:16;;;;;;;;;15.67;15.67;;;;;17.69;81.11;101874.56;4982770;28;9386;-70
2023/10/02 04:53:46;;;;;;;;;17.33;15.67;;;;;17.72;81.01;101870.59;4983784;28;9285;-66
2023/10/02 04:56:22;;;;;;;;;15.33;14.33;;;;;17.69;80.83;101874.56;4974669;28;9161;-67
2023/10/02 04:58:51;;;;;;;;;17.67;15.67;;;;;17.67;81.29;101876.69;4992108;28;9017;-68
2023/10/02 05:01:34;;;;;;;;;18.00;15.33;;;;;17.67;81.09;101865.78;4979886;28;9137;-68
2023/10/02 05:04:06;;;;;;;;;16.67;14.00;;;;;17.67;80.93;101863.06;4995137;28;8988;-66
2023/10/02 05:06:52;;;;;;;;;17.00;15.67;;;;;17.68;81.05;101864.72;4997429;28;8999;-68
2023/10/02 05:09:25;;;;;;;;;17.33;16.00;;;;;17.67;80.94;101873.97;4974616;28;9172;-68
2023/10/02 05:11:52;;;;;;;;;14.00;14.00;;;;;17.66;80.68;101882.31;4988162;28;9062;-67
2023/10/02 05:14:26;;;;;;;;;13.33;13.00;;;;;17.66;80.86;101877.75;4991356;28;8971;-69
2023/10/02 05:17:18;;;;;;;;;20.33;20.33;;;;;17.60;80.74;101877.75;4991540;28;9856;-66
2023/10/02 05:19:57;;;;;;;;;19.00;17.33;;;;;17.59;81.07;101878.81;4984784;28;9240;-68
2023/10/02 05:22:24;;;;;;;;;22.67;22.00;;;;;17.58;81.15;101882.56;5008824;28;9918;-68
2023/10/02 05:24:58;;;;;;;;;18.00;15.33;;;;;17.59;80.97;101876.09;4976106;28;9567;-69
2023/10/02 05:27:44;;;;;;;;;16.67;16.00;;;;;17.58;80.86;101877.94;4985363;28;9239;-68
2023/10/02 05:30:14;;;;;;;;;20.33;16.33;;;;;17.57;81.24;101887.19;4983565;28;9054;-67
2023/10/02 05:32:41;;;;;;;;;13.33;12.00;;;;;17.59;80.96;101892.44;4991023;28;9069;-68
2023/10/02 05:37:45;;;;;;;;;13.67;10.00;;;;;17.60;81.19;101891.38;5009167;28;9026;-68
2023/10/02 05:43:09;;;;;;;;;13.67;13.67;;;;;17.59;80.95;101881.53;5003497;28;9143;-67
2023/10/02 05:48:14;;;;;;;;;14.00;12.67;;;;;17.55;81.28;101894.75;5004197;28;9254;-67
2023/10/02 05:50:47;;;;;;;;;17.50;13.50;;;;;17.55;81.20;101901.00;4994982;28;8988;-68
2023/10/02 05:53:15;;;;;;;;;15.00;11.33;;;;;17.53;81.31;101900.38;4974101;28;8984;-66
2023/10/02 05:56:04;;;;;;;;;15.67;15.67;;;;;17.53;81.21;101905.81;4987569;28;9073;-68
2023/10/02 05:58:32;;;;;;;;;13.33;13.33;;;;;17.51;81.04;101905.22;5001582;28;9112;-68
2023/10/02 06:01:16;;;;;;;;;14.67;14.00;;;;;17.49;81.20;101907.31;4999704;28;8992;-68
2023/10/02 06:03:43;;;;;;;;;13.67;13.00;;;;;17.47;81.32;101900.41;4990790;28;9086;-68
2023/10/02 06:06:15;;;;;;;;;16.00;15.67;;;;;17.49;81.63;101904.59;5005817;28;9061;-68
2023/10/02 06:08:49;;;;;;;;;13.33;11.00;;;;;17.50;81.27;101906.28;4991541;28;9831;-68
2023/10/02 06:11:25;;;;;;;;;13.00;12.00;;;;;17.51;81.68;101910.66;4991262;28;8987;-67
2023/10/02 06:13:56;;;;;;;;;17.00;17.00;;;;;17.50;81.12;101922.63;4992135;28;10335;-68
2023/10/02 06:16:29;;;;;;;;;16.33;16.33;;;;;17.50;81.21;101910.84;4985446;28;9152;-68
2023/10/02 06:19:03;;;;;;;;;13.33;13.33;;;;;17.48;80.93;101907.53;4988606;28;9925;-68
2023/10/02 06:21:31;;;;;;;;;17.67;14.33;;;;;17.44;81.30;101907.13;4989249;28;9031;-72
2023/10/02 06:23:58;;;;;;;;;18.33;15.33;;;;;17.41;81.36;101902.09;5009661;28;9164;-67
2023/10/02 06:26:46;;;;;;;;;18.33;15.33;;;;;17.43;81.49;101926.41;5006971;28;9314;-68
2023/10/02 06:29:24;;;;;;;;;15.33;13.33;;;;;17.41;81.63;101928.47;4997356;28;9187;-68
2023/10/02 06:31:59;;;;;;;;;21.67;19.33;;;;;17.43;81.63;101931.84;4983830;28;9839;-68
2023/10/02 06:34:37;;;;;;;;;14.67;14.33;;;;;17.45;81.66;101924.28;4991879;28;9882;-68
2023/10/02 06:37:16;;;;;;;;;20.33;15.67;;;;;17.45;81.81;101936.00;5005155;28;9231;-67
2023/10/02 06:40:04;;;;;;;;;14.33;14.33;;;;;17.48;81.62;101948.38;4991248;28;9142;-68
2023/10/02 06:42:32;;;;;;;;;16.67;15.00;;;;;17.49;81.61;101941.88;4970158;28;9151;-68
2023/10/02 06:45:02;;;;;;;;;17.67;17.67;;;;;17.50;81.81;101944.38;4970873;28;9269;-67
2023/10/02 06:47:30;;;;;;;;;11.33;11.00;;;;;17.52;81.47;101952.34;4978026;28;9264;-67
2023/10/02 06:50:04;;;;;;;;;16.67;14.00;;;;;17.53;81.46;101943.94;4990565;28;9080;-68
2023/10/02 06:52:34;;;;;;;;;14.67;11.00;;;;;17.55;81.40;101944.56;4973042;28;9812;-68
2023/10/02 06:55:03;;;;;;;;;14.67;14.67;;;;;17.56;81.43;101950.84;4991042;28;9777;-68
2023/10/02 06:57:31;;;;;;;;;13.67;12.33;;;;;17.57;81.36;101947.06;4983787;28;8922;-68
2023/10/02 06:59:57;;;;;;;;;20.33;20.33;;;;;17.56;81.67;101945.41;4971199;28;8925;-68
2023/10/02 07:02:26;;;;;;;;;14.33;13.33;;;;;17.55;81.47;101946.47;4970985;28;9072;-68
2023/10/02 07:04:55;;;;;;;;;11.33;11.33;;;;;17.55;81.81;101944.56;4971249;28;8900;-68
2023/10/02 07:07:30;;;;;;;;;15.00;13.00;;;;;17.53;81.64;101945.81;4976369;28;9096;-68
2023/10/02 07:10:07;;;;;;;;;15.75;11.50;;;;;17.54;81.91;101936.59;4986016;28;9107;-68
2023/10/02 07:12:41;;;;;;;;;16.33;16.33;;;;;17.53;82.01;101930.31;4971113;28;8860;-69
2023/10/02 07:15:11;;;;;;;;;15.67;15.00;;;;;17.53;82.42;101929.50;4988066;28;9315;-69
2023/10/02 07:17:47;;;;;;;;;18.00;14.33;;;;;17.58;82.23;101935.13;4971521;28;9114;-69
2023/10/02 07:20:19;;;;;;;;;13.00;12.67;;;;;17.61;82.54;101942.03;4994247;28;9071;-68
2023/10/02 07:22:47;;;;;;;;;14.33;10.00;;;;;17.66;82.21;101944.94;4990796;28;9010;-69
2023/10/02 07:25:24;;;;;;;;;16.00;16.00;;;;;17.69;82.19;101948.09;4974794;28;8930;-69
2023/10/02 07:27:52;;;;;;;;;11.00;9.25;;;;;17.75;82.22;101949.16;4976355;28;8934;-68
2023/10/02 07:30:27;;;;;;;;;12.50;10.50;;;;;17.77;82.04;101947.88;4994335;28;8861;-68
2023/10/02 07:33:02;;;;;;;;;18.67;14.00;;;;;17.82;81.67;101938.22;4994248;28;8818;-69
2023/10/02 07:35:30;;;;;;;;;15.67;15.33;;;;;17.83;81.73;101940.75;4977102;28;9065;-68
2023/10/02 07:38:00;;;;;;;;;15.00;14.00;;;;;17.85;81.76;101949.53;4966862;28;8922;-69
2023/10/02 07:40:46;;;;;;;;;18.67;13.33;;;;;17.87;81.94;101949.34;4975370;28;9207;-68
2023/10/02 07:43:18;;;;;;;;;12.67;12.67;;;;;17.88;81.95;101934.66;4973825;28;9014;-67
2023/10/02 07:46:01;;;;;;;;;14.75;13.00;;;;;17.88;82.20;101938.22;4984613;28;8996;-69
2023/10/02 07:48:33;;;;;;;;;16.33;13.67;;;;;17.89;81.98;101941.75;4993462;28;8997;-68
2023/10/02 07:51:06;;;;;;;;;18.33;15.00;;;;;17.91;82.03;101945.97;4993738;28;9083;-67
2023/10/02 07:53:39;;;;;;;;;19.67;18.00;;;;;17.92;82.23;101944.06;4962660;28;9508;-68
2023/10/02 07:56:12;;;;;;;;;19.00;19.00;;;;;17.94;82.13;101950.13;4957254;28;9176;-69
2023/10/02 07:58:41;;;;;;;;;17.00;15.00;;;;;17.96;82.38;101943.41;4971645;28;9114;-68
2023/10/02 08:01:14;;;;;;;;;14.00;14.00;;;;;17.98;82.70;101951.34;4993800;28;8934;-67
2023/10/02 08:03:44;;;;;;;;;14.25;12.50;;;;;18.02;82.76;101949.88;4976490;28;8845;-69
2023/10/02 08:06:21;;;;;;;;;15.00;13.50;;;;;18.04;82.85;101945.88;4974675;28;9559;-68
2023/10/02 08:11:41;;;;;;;;;20.00;17.00;;;;;18.07;82.70;101960.13;4974303;28;8836;-68
2023/10/02 08:14:34;;;;;;;;;16.00;14.67;;;;;18.12;82.77;101974.78;4976435;28;9099;-67
2023/10/02 08:17:17;;;;;;;;;21.33;17.00;;;;;18.15;82.82;101968.03;4993465;28;8976;-68
2023/10/02 08:19:54;;;;;;;;;26.00;20.67;;;;;18.18;82.97;101973.06;4975716;28;8957;-67
2023/10/02 08:22:35;;;;;;;;;17.33;14.33;;;;;18.22;83.08;101975.13;4973640;28;9657;-68
2023/10/02 08:25:03;;;;;;;;;14.00;13.00;;;;;18.26;83.08;101976.38;4986249;28;8994;-67
2023/10/02 08:27:32;;;;;;;;;14.25;10.75;;;;;18.30;83.07;101971.31;4967855;28;8862;-68
2023/10/02 08:30:01;;;;;;;;;13.00;12.75;;;;;18.30;82.84;101971.31;4973239;28;8924;-68
2023/10/02 08:32:30;;;;;;;;;21.33;17.00;;;;;18.27;82.94;101969.91;4989184;28;8948;-68
2023/10/02 08:34:57;;;;;;;;;20.67;19.00;;;;;18.24;83.22;101980.38;4992911;28;9018;-68
2023/10/02 08:37:25;;;;;;;;;17.00;12.67;;;;;18.26;83.52;101989.16;4992301;28;9096;-67
2023/10/02 08:39:52;;;;;;;;;27.67;24.33;;;;;18.18;83.83;101976.63;4992727;28;8929;-68
2023/10/02 08:42:24;;;;;;;;;20.67;16.00;;;;;18.21;84.03;101972.66;4992184;28;9323;-67
2023/10/02 08:44:54;;;;;;;;;18.00;15.00;;;;;18.25;84.21;101976.59;4993255;28;9073;-68
2023/10/02 08:47:24;;;;;;;;;16.67;13.00;;;;;18.27;84.10;101959.00;4973013;28;9011;-67
2023/10/02 08:50:16;;;;;;;;;13.75;12.75;;;;;18.30;84.49;101949.53;4993652;28;9014;-68
2023/10/02 08:52:51;;;;;;;;;16.33;15.00;;;;;18.32;84.52;101960.22;4968850;28;8868;-69
2023/10/02 08:55:35;;;;;;;;;20.67;17.67;;;;;18.32;84.72;101963.78;4963670;28;9301;-69
2023/10/02 08:58:15;;;;;;;;;23.50;20.75;;;;;18.38;84.76;101956.59;4972224;28;9782;-69
2023/10/02 09:03:41;;;;;;;;;18.67;16.67;;;;;18.49;84.92;101953.19;4955508;28;9017;-70
2023/10/02 09:09:21;;;;;;;;;18.67;17.67;;;;;18.55;84.69;101957.75;4962277;28;8864;-70
2023/10/02 09:11:57;;;;;;;;;19.33;15.33;;;;;18.57;84.71;101957.56;4979487;28;8931;-70
2023/10/02 09:17:07;;;;;;;;;17.67;16.00;;;;;18.68;84.83;101954.94;4972384;28;8917;-70
2023/10/02 09:19:37;;;;;;;;;21.33;20.33;;;;;18.67;84.56;101939.63;4955410;28;9101;-70
2023/10/02 09:22:07;;;;;;;;;18.25;15.00;;;;;18.72;84.97;101955.38;4954986;28;9093;-70
2023/10/02 09:24:37;;;;;;;;;16.00;15.50;;;;;18.74;84.61;101950.53;4955062;28;8900;-70
2023/10/02 09:27:23;;;;;;;;;15.50;14.00;;;;;18.76;84.53;101949.25;4972431;28;8833;-70
2023/10/02 09:30:15;;;;;;;;;14.00;13.00;;;;;18.78;84.25;101959.94;4954991;28;8845;-70
2023/10/02 09:32:50;;;;;;;;;12.33;11.33;;;;;18.83;84.16;101953.81;4955109;28;9584;-70
2023/10/02 09:35:44;;;;;;;;;20.00;17.67;;;;;18.83;84.05;101953.81;4955045;28;9025;-70
2023/10/02 09:38:32;;;;;;;;;22.33;18.33;;;;;18.85;84.04;101948.97;4972063;28;9103;-70
2023/10/02 09:41:15;;;;;;;;;18.67;17.67;;;;;18.82;83.81;101941.22;4972053;28;9219;-70
2023/10/02 09:43:42;;;;;;;;;17.67;15.33;;;;;18.84;84.06;101944.56;4972250;28;9006;-70
2023/10/02 09:46:21;;;;;;;;;23.00;20.00;;;;;18.84;84.09;101945.41;4971501;28;8934;-70
2023/10/02 09:49:21;;;;;;;;;24.00;21.00;;;;;18.87;84.03;101944.94;4971827;28;9130;-70
2023/10/02 09:52:11;;;;;;;;;18.67;16.67;;;;;18.93;84.09;101948.69;4971936;28;9044;-70
2023/10/02 09:55:03;;;;;;;;;16.25;14.00;;;;;19.00;83.97;101931.22;4935209;28;8949;-70
2023/10/02 09:57:38;;;;;;;;;22.67;19.67;;;;;19.07;83.74;101922.94;4952405;28;8855;-70
2023/10/02 10:00:34;;;;;;;;;15.25;14.50;;;;;19.10;83.62;101917.06;4954824;28;9023;-70
2023/10/02 10:03:22;;;;;;;;;18.00;16.25;;;;;19.13;83.39;101922.06;4971737;28;8837;-70
2023/10/02 10:06:16;;;;;;;;;21.25;16.25;;;;;19.15;83.42;101916.38;4954582;28;8877;-70
2023/10/02 10:11:45;;;;;;;;;15.25;13.75;;;;;19.14;83.56;101931.91;4953934;28;9162;-70
2023/10/02 10:14:36;;;;;;;;;20.67;20.67;;;;;19.15;83.79;101924.56;4954467;28;8846;-70
2023/10/02 10:17:16;;;;;;;;;23.67;23.33;;;;;19.18;84.10;101924.13;4954034;28;9095;-70
2023/10/02 10:19:48;;;;;;;;;18.67;15.00;;;;;19.24;84.17;101923.19;4971509;28;9131;-70
2023/10/02 10:22:36;;;;;;;;;23.25;18.00;;;;;19.27;83.90;101918.13;4935242;28;8954;-70
2023/10/02 10:27:39;;;;;;;;;18.50;15.75;;;;;19.36;83.76;101906.91;4947653;28;8915;-70
2023/10/02 10:30:39;;;;;;;;;22.00;19.33;;;;;19.39;83.71;101907.28;4971102;28;8861;-70
2023/10/02 10:33:27;;;;;;;;;19.25;18.25;;;;;19.42;83.75;101914.22;4951708;28;9646;-70
2023/10/02 10:35:57;;;;;;;;;26.33;26.00;;;;;19.39;83.93;101910.03;4954499;28;8955;-70
2023/10/02 10:38:28;;;;;;;;;25.00;24.33;;;;;19.40;83.92;101910.84;4971232;28;9095;-70
2023/10/02 10:41:05;;;;;;;;;17.00;16.00;;;;;19.45;83.95;101908.31;4954231;28;9240;-70
2023/10/02 10:46:20;;;;;;;;;26.00;21.00;;;;;19.43;83.70;101910.41;4970814;28;8935;-71
2023/10/02 10:49:10;;;;;;;;;24.00;19.00;;;;;19.50;83.58;101908.44;4954077;28;9005;-70
2023/10/02 10:51:38;;;;;;;;;20.67;19.33;;;;;19.58;83.64;101904.59;4970598;28;8842;-71
2023/10/02 10:54:12;;;;;;;;;16.50;16.25;;;;;19.60;83.30;101910.63;4971065;28;8981;-71
2023/10/02 10:56:44;;;;;;;;;17.00;17.00;;;;;19.65;83.15;101913.56;4970749;28;9700;-71
2023/10/02 10:59:12;;;;;;;;;20.25;19.00;;;;;19.65;83.03;101917.13;4953863;28;9670;-70
2023/10/02 11:04:39;;;;;;;;;18.75;18.25;;;;;19.72;82.90;101919.75;4953640;28;8845;-71
2023/10/02 11:07:25;;;;;;;;;22.75;17.00;;;;;19.75;82.60;101924.78;4970575;28;8908;-70
2023/10/02 11:10:17;;;;;;;;;19.50;18.00;;;;;19.82;82.46;101914.59;4971049;28;8977;-70
2023/10/02 11:12:59;;;;;;;;;21.67;21.00;;;;;19.77;82.58;101917.19;4971036;28;8829;-71
2023/10/02 11:15:46;;;;;;;;;23.33;21.00;;;;;19.82;82.78;101916.50;4970960;28;9035;-71
2023/10/02 11:18:18;;;;;;;;;30.00;25.67;;;;;19.81;82.55;101912.94;4953595;28;9029;-70
2023/10/02 11:20:49;;;;;;;;;22.25;22.25;;;;;19.89;82.50;101914.50;4970676;28;9232;-70
2023/10/02 11:23:38;;;;;;;;;26.67;23.67;;;;;19.93;82.19;101913.84;4971286;28;9587;-71
2023/10/02 11:26:21;;;;;;;;;21.75;21.75;;;;;19.99;81.82;101901.97;4970332;28;8963;-71
2023/10/02 11:28:51;;;;;;;;;22.75;19.00;;;;;20.05;81.94;101907.56;4970403;28;8833;-69
2023/10/02 11:31:32;;;;;;;;;27.33;23.00;;;;;20.05;81.83;101894.72;4970024;28;8875;-70
2023/10/02 11:34:08;;;;;;;;;21.75;17.25;;;;;20.05;81.49;101900.19;4971053;28;9014;-70
2023/10/02 11:36:54;;;;;;;;;19.00;16.75;;;;;20.08;81.70;101888.81;4970330;28;9543;-70
2023/10/02 11:39:27;;;;;;;;;27.00;23.67;;;;;20.08;81.68;101897.00;4970947;28;9634;-70
2023/10/02 11:41:54;;;;;;;;;23.50;19.25;;;;;20.08;81.46;101891.53;4964721;28;9017;-70
2023/10/02 11:44:21;;;;;;;;;17.00;17.00;;;;;20.12;81.47;101884.53;4970754;28;8845;-70
2023/10/02 11:46:48;;;;;;;;;31.67;28.67;;;;;20.10;81.39;101878.50;4953198;28;8857;-70
2023/10/02 11:49:15;;;;;;;;;23.25;21.50;;;;;20.16;81.32;101877.53;4953446;28;9038;-70
2023/10/02 11:51:44;;;;;;;;;23.00;20.00;;;;;20.27;81.16;101866.91;4970275;28;8947;-70
2023/10/02 11:54:13;;;;;;;;;17.25;17.25;;;;;20.33;81.04;101869.50;4970656;28;8896;-70
2023/10/02 11:56:40;;;;;;;;;20.25;19.75;;;;;20.40;80.64;101869.41;4970170;28;8865;-70
2023/10/02 11:59:07;;;;;;;;;18.50;18.00;;;;;20.43;80.63;101861.56;4970654;28;9587;-71
2023/10/02 12:01:35;;;;;;;;;22.75;19.50;;;;;20.48;80.48;101869.06;4970584;28;8838;-70
2023/10/02 12:04:04;;;;;;;;;19.75;15.50;;;;;20.57;80.59;101861.38;4974248;28;8833;-70
2023/10/02 12:06:31;;;;;;;;;18.00;14.00;;;;;20.62;80.10;101858.75;4956733;28;8850;-71
2023/10/02 12:08:58;;;;;;;;;22.75;17.50;;;;;20.66;80.06;101849.88;4973744;28;8818;-70
2023/10/02 12:11:25;;;;;;;;;17.00;15.00;;;;;20.73;79.67;101847.81;4956631;28;9603;-70
2023/10/02 12:13:52;;;;;;;;;13.00;11.25;;;;;20.79;79.34;101846.06;4974187;28;8864;-70
2023/10/02 12:16:21;;;;;;;;;20.00;17.00;;;;;20.79;79.26;101837.84;4973792;28;8833;-70
2023/10/02 12:18:52;;;;;;;;;21.25;17.00;;;;;20.84;78.99;101835.22;4974134;28;8955;-70
2023/10/02 12:21:21;;;;;;;;;14.50;14.00;;;;;20.89;78.80;101835.34;4973911;28;8876;-69
2023/10/02 12:23:48;;;;;;;;;18.75;18.00;;;;;20.92;78.98;101836.78;4973829;28;8872;-70
2023/10/02 12:26:17;;;;;;;;;15.00;14.25;;;;;20.96;78.77;101838.78;4973761;28;8818;-70
2023/10/02 12:28:44;;;;;;;;;14.50;13.00;;;;;20.97;78.72;101826.75;4956986;28;8841;-70
2023/10/02 12:31:14;;;;;;;;;13.75;11.50;;;;;21.02;78.75;101826.03;4956218;28;8861;-70
2023/10/02 12:33:42;;;;;;;;;18.00;17.00;;;;;21.07;78.67;101828.91;4956617;28;8842;-70
2023/10/02 12:36:14;;;;;;;;;15.00;12.25;;;;;21.13;78.35;101816.16;4973419;28;8948;-71
2023/10/02 12:38:41;;;;;;;;;15.25;12.00;;;;;21.18;78.19;101821.72;4973892;28;8927;-71
2023/10/02 12:41:19;;;;;;;;;17.75;16.00;;;;;21.23;77.64;101811.75;4973587;28;8841;-70